createdAt,value
2022-10-17T00:00:30.170Z,99.99
2022-10-17T00:01:30.251Z,99.99
2022-10-17T00:02:30.292Z,99.99
2022-10-17T00:03:30.291Z,99.99
2022-10-17T00:04:30.390Z,99.99
2022-10-17T00:05:30.363Z,99.99
2022-10-17T00:06:30.353Z,99.99
2022-10-17T00:07:30.816Z,99.99
2022-10-17T00:08:30.413Z,99.99
2022-10-17T00:09:30.473Z,99.99
2022-10-17T00:10:30.483Z,99.99
2022-10-17T00:11:30.504Z,99.99
2022-10-17T00:12:30.475Z,99.99
2022-10-17T00:13:30.573Z,99.99
2022-10-17T00:14:30.543Z,99.99
2022-10-17T00:15:30.595Z,99.99
2022-10-17T00:16:30.645Z,99.99
2022-10-17T00:17:30.961Z,99.99
2022-10-17T00:18:30.707Z,99.99
2022-10-17T00:19:30.756Z,99.99
2022-10-17T00:20:30.796Z,99.99
2022-10-17T00:21:30.837Z,99.99
2022-10-17T00:22:30.923Z,99.99
2022-10-17T00:23:30.948Z,99.99
2022-10-17T00:24:30.997Z,99.99
2022-10-17T00:25:31.059Z,99.99
2022-10-17T00:26:31.066Z,99.99
2022-10-17T00:27:31.109Z,99.99
2022-10-17T00:28:31.185Z,99.99
2022-10-17T00:29:31.209Z,99.99
2022-10-17T00:30:31.220Z,99.99
2022-10-17T00:31:31.238Z,99.99
2022-10-17T00:32:31.507Z,99.99
2022-10-17T00:33:31.273Z,99.99
2022-10-17T00:34:31.310Z,99.99
2022-10-17T00:35:31.372Z,99.99
2022-10-17T00:36:31.352Z,99.99
2022-10-17T00:37:31.423Z,99.99
2022-10-17T00:38:31.472Z,99.99
2022-10-17T00:39:31.535Z,99.99
2022-10-17T00:40:31.533Z,99.99
2022-10-17T00:41:31.576Z,99.99
2022-10-17T00:42:31.692Z,99.99
2022-10-17T00:43:31.694Z,99.99
2022-10-17T00:44:31.686Z,99.99
2022-10-17T00:45:31.725Z,99.99
2022-10-17T00:46:31.784Z,99.99
2022-10-17T00:47:31.835Z,99.99
2022-10-17T00:48:31.845Z,99.99
2022-10-17T00:49:31.855Z,99.99
2022-10-17T00:50:31.849Z,99.99
2022-10-17T00:51:31.850Z,99.99
2022-10-17T00:52:32.134Z,99.99
2022-10-17T00:53:31.836Z,99.99
2022-10-17T00:54:31.908Z,99.99
2022-10-17T00:55:31.896Z,99.99
2022-10-17T00:56:31.958Z,99.99
2022-10-17T00:57:32.018Z,99.99
2022-10-17T00:58:32.062Z,99.99
2022-10-17T00:59:32.079Z,99.99
2022-10-17T01:00:32.150Z,99.99
2022-10-17T01:01:32.163Z,99.99
2022-10-17T01:02:32.161Z,99.99
2022-10-17T01:03:32.141Z,99.99
2022-10-17T01:04:32.120Z,99.99
2022-10-17T01:05:32.131Z,99.99
2022-10-17T01:06:32.180Z,99.99
2022-10-17T01:07:34.910Z,99.99
2022-10-17T01:08:32.283Z,99.99
2022-10-17T01:09:32.341Z,99.99
2022-10-17T01:10:32.400Z,99.99
2022-10-17T01:11:32.401Z,99.99
2022-10-17T01:12:32.434Z,99.99
2022-10-17T01:13:32.431Z,99.99
2022-10-17T01:14:32.479Z,99.99
2022-10-17T01:15:32.475Z,99.99
2022-10-17T01:16:32.505Z,99.99
2022-10-17T01:17:32.563Z,99.99
2022-10-17T01:18:32.557Z,99.99
2022-10-17T01:19:32.607Z,99.99
2022-10-17T01:20:32.665Z,99.99
2022-10-17T01:21:32.710Z,99.99
2022-10-17T01:22:32.709Z,99.99
2022-10-17T01:23:32.766Z,99.99
2022-10-17T01:24:32.807Z,99.99
2022-10-17T01:25:32.867Z,99.99
2022-10-17T01:26:32.896Z,99.99
2022-10-17T01:27:32.936Z,99.99
2022-10-17T01:28:33.057Z,99.99
2022-10-17T01:29:32.990Z,99.99
2022-10-17T01:30:33.039Z,99.99
2022-10-17T01:31:33.039Z,99.99
2022-10-17T01:32:33.069Z,99.99
2022-10-17T01:33:33.080Z,99.99
2022-10-17T01:34:33.129Z,99.99
2022-10-17T01:35:33.210Z,99.99
2022-10-17T01:36:33.232Z,99.99
2022-10-17T01:37:33.270Z,99.99
2022-10-17T01:38:33.341Z,99.99
2022-10-17T01:39:36.821Z,99.99
2022-10-17T01:40:33.402Z,99.99
2022-10-17T01:41:33.472Z,99.99
2022-10-17T01:42:33.514Z,99.99
2022-10-17T01:43:33.564Z,99.99
2022-10-17T01:44:33.605Z,99.99
2022-10-17T01:45:33.654Z,99.99
2022-10-17T01:46:33.724Z,99.99
2022-10-17T01:47:33.775Z,99.99
2022-10-17T01:48:33.775Z,99.99
2022-10-17T01:49:33.767Z,99.99
2022-10-17T01:50:33.805Z,99.99
2022-10-17T01:51:33.855Z,99.99
2022-10-17T01:52:33.907Z,99.99
2022-10-17T01:54:59.942Z,99.99
2022-10-17T01:55:59.995Z,99.99
2022-10-17T01:57:00.035Z,99.99
2022-10-17T01:58:00.093Z,99.99
2022-10-17T01:59:00.134Z,99.99
2022-10-17T02:00:00.175Z,99.99
2022-10-17T02:01:00.280Z,99.99
2022-10-17T02:02:00.256Z,99.99
2022-10-17T02:03:00.333Z,99.99
2022-10-17T02:04:00.364Z,99.99
2022-10-17T02:06:00.406Z,99.99
2022-10-17T02:07:00.469Z,99.99
2022-10-17T02:08:00.527Z,99.99
2022-10-17T02:09:00.578Z,99.99
2022-10-17T02:10:00.617Z,99.99
2022-10-17T02:11:00.650Z,99.99
2022-10-17T02:12:00.700Z,99.99
2022-10-17T02:13:00.762Z,99.99
2022-10-17T02:14:00.833Z,99.99
2022-10-17T02:15:00.800Z,99.99
2022-10-17T02:16:00.831Z,99.99
2022-10-17T02:17:00.884Z,99.99
2022-10-17T02:18:00.951Z,99.99
2022-10-17T02:19:00.991Z,99.99
2022-10-17T02:20:01.032Z,99.99
2022-10-17T02:21:01.074Z,99.99
2022-10-17T02:22:01.111Z,99.99
2022-10-17T02:23:01.162Z,99.99
2022-10-17T02:24:01.228Z,99.99
2022-10-17T02:25:01.265Z,99.99
2022-10-17T02:26:01.312Z,99.99
2022-10-17T02:27:01.352Z,99.99
2022-10-17T02:28:01.393Z,99.99
2022-10-17T02:29:01.519Z,99.99
2022-10-17T02:30:01.497Z,99.99
2022-10-17T02:31:01.534Z,99.99
2022-10-17T02:32:01.586Z,99.99
2022-10-17T02:33:01.625Z,99.99
2022-10-17T02:34:01.676Z,99.99
2022-10-17T02:35:01.744Z,99.99
2022-10-17T02:36:01.776Z,99.99
2022-10-17T02:37:01.819Z,99.99
2022-10-17T02:38:01.856Z,99.99
2022-10-17T02:39:01.926Z,99.99
2022-10-17T02:40:01.967Z,99.99
2022-10-17T02:41:02.019Z,99.99
2022-10-17T02:42:02.068Z,99.99
2022-10-17T02:43:02.120Z,99.99
2022-10-17T02:44:02.546Z,99.99
2022-10-17T02:45:02.180Z,99.99
2022-10-17T02:46:02.228Z,99.99
2022-10-17T02:47:02.280Z,99.99
2022-10-17T02:48:02.321Z,99.99
2022-10-17T02:49:02.380Z,99.99
2022-10-17T02:50:02.440Z,99.99
2022-10-17T02:51:02.483Z,99.99
2022-10-17T02:52:02.522Z,99.99
2022-10-17T02:53:02.562Z,99.99
2022-10-17T02:54:02.622Z,99.99
2022-10-17T02:55:02.674Z,99.99
2022-10-17T02:56:02.746Z,99.99
2022-10-17T02:57:02.783Z,99.99
2022-10-17T02:58:02.822Z,99.99
2022-10-17T02:59:02.864Z,99.99
2022-10-17T03:00:02.923Z,99.99
2022-10-17T03:01:03.008Z,99.99
2022-10-17T03:02:02.955Z,99.99
2022-10-17T03:03:02.995Z,99.99
2022-10-17T03:04:03.054Z,99.99
2022-10-17T03:05:03.115Z,99.99
2022-10-17T03:06:03.179Z,99.99
2022-10-17T03:07:03.236Z,99.99
2022-10-17T03:08:03.276Z,99.99
2022-10-17T03:09:03.326Z,99.99
2022-10-17T03:10:03.380Z,99.99
2022-10-17T03:11:03.447Z,99.99
2022-10-17T03:12:03.497Z,99.99
2022-10-17T03:13:03.538Z,99.99
2022-10-17T03:14:03.569Z,99.99
2022-10-17T03:15:03.608Z,99.99
2022-10-17T03:16:03.648Z,99.99
2022-10-17T03:17:03.719Z,99.99
2022-10-17T03:18:03.759Z,99.99
2022-10-17T03:19:03.810Z,99.99
2022-10-17T03:20:03.849Z,99.99
2022-10-17T03:21:03.890Z,99.99
2022-10-17T03:22:03.948Z,99.99
2022-10-17T03:23:03.991Z,99.99
2022-10-17T03:24:04.031Z,99.99
2022-10-17T03:25:04.032Z,99.99
2022-10-17T03:26:04.072Z,99.99
2022-10-17T03:27:04.122Z,99.99
2022-10-17T03:28:04.173Z,99.99
2022-10-17T03:29:04.250Z,99.99
2022-10-17T03:30:04.233Z,99.99
2022-10-17T03:31:04.273Z,99.99
2022-10-17T03:32:04.321Z,99.99
2022-10-17T03:33:04.374Z,99.99
2022-10-17T03:34:04.424Z,99.99
2022-10-17T03:35:04.495Z,99.99
2022-10-17T03:36:04.539Z,99.99
2022-10-17T03:37:04.524Z,99.99
2022-10-17T03:38:04.578Z,99.99
2022-10-17T03:39:04.627Z,99.99
2022-10-17T03:40:04.667Z,99.99
2022-10-17T03:41:04.716Z,99.99
2022-10-17T03:42:04.789Z,99.99
2022-10-17T03:43:04.838Z,99.99
2022-10-17T03:44:04.877Z,99.99
2022-10-17T03:45:04.927Z,99.99
2022-10-17T03:46:04.975Z,99.99
2022-10-17T03:47:04.980Z,99.99
2022-10-17T03:48:05.018Z,99.99
2022-10-17T03:49:05.065Z,99.99
2022-10-17T03:50:05.109Z,99.99
2022-10-17T03:51:05.152Z,99.99
2022-10-17T03:52:05.202Z,99.99
2022-10-17T03:53:05.240Z,99.99
2022-10-17T03:54:05.279Z,99.99
2022-10-17T03:55:05.331Z,99.99
2022-10-17T03:56:05.333Z,99.99
2022-10-17T03:57:05.382Z,99.99
2022-10-17T03:58:05.432Z,99.99
2022-10-17T03:59:05.476Z,99.99
2022-10-17T04:00:05.543Z,99.99
2022-10-17T04:01:05.627Z,99.99
2022-10-17T04:02:05.604Z,99.99
2022-10-17T04:03:05.646Z,99.99
2022-10-17T04:04:05.707Z,99.99
2022-10-17T04:05:05.772Z,99.99
2022-10-17T04:06:05.726Z,99.99
2022-10-17T04:07:05.765Z,99.99
2022-10-17T04:08:05.815Z,99.99
2022-10-17T04:09:05.856Z,99.99
2022-10-17T04:10:05.917Z,99.99
2022-10-17T04:11:05.967Z,99.99
2022-10-17T04:12:06.016Z,99.99
2022-10-17T04:13:06.059Z,99.99
2022-10-17T04:14:06.106Z,99.99
2022-10-17T04:15:06.168Z,99.99
2022-10-17T04:16:06.209Z,99.99
2022-10-17T04:17:06.248Z,99.99
2022-10-17T04:18:06.298Z,99.99
2022-10-17T04:19:06.359Z,99.99
2022-10-17T04:20:06.409Z,99.99
2022-10-17T04:21:06.449Z,99.99
2022-10-17T04:22:06.530Z,99.99
2022-10-17T04:23:06.490Z,99.99
2022-10-17T04:24:06.536Z,99.99
2022-10-17T04:25:06.570Z,99.99
2022-10-17T04:26:06.621Z,99.99
2022-10-17T04:27:06.680Z,99.99
2022-10-17T04:28:06.732Z,99.99
2022-10-17T04:29:06.781Z,99.99
2022-10-17T04:30:06.854Z,99.99
2022-10-17T04:31:06.901Z,99.99
2022-10-17T04:32:06.952Z,99.99
2022-10-17T04:33:07.005Z,99.99
2022-10-17T04:34:07.053Z,99.99
2022-10-17T04:35:07.115Z,99.99
2022-10-17T04:36:07.092Z,99.99
2022-10-17T04:37:07.134Z,99.99
2022-10-17T04:38:07.175Z,99.99
2022-10-17T04:39:07.251Z,99.99
2022-10-17T04:40:07.305Z,99.99
2022-10-17T04:41:07.367Z,99.99
2022-10-17T04:42:07.396Z,99.99
2022-10-17T04:43:07.447Z,99.99
2022-10-17T04:44:07.476Z,99.99
2022-10-17T04:45:07.545Z,99.99
2022-10-17T04:46:07.586Z,99.99
2022-10-17T04:47:07.630Z,99.99
2022-10-17T04:48:07.677Z,99.99
2022-10-17T04:49:07.718Z,99.99
2022-10-17T04:50:07.779Z,99.99
2022-10-17T04:51:07.839Z,99.99
2022-10-17T04:52:07.890Z,99.99
2022-10-17T04:53:07.929Z,99.99
2022-10-17T04:54:07.979Z,99.99
2022-10-17T04:55:08.039Z,99.99
2022-10-17T04:56:08.082Z,99.99
2022-10-17T04:57:08.130Z,99.99
2022-10-17T04:58:08.180Z,99.99
2022-10-17T04:59:08.224Z,99.99
2022-10-17T05:01:08.322Z,99.99
2022-10-17T05:02:08.312Z,99.99
2022-10-17T05:03:08.371Z,99.99
2022-10-17T05:04:08.415Z,99.99
2022-10-17T05:05:08.472Z,99.99
2022-10-17T05:06:08.524Z,99.99
2022-10-17T05:07:08.580Z,99.99
2022-10-17T05:08:08.624Z,99.99
2022-10-17T05:09:08.664Z,99.99
2022-10-17T05:10:08.728Z,99.99
2022-10-17T05:11:08.786Z,99.99
2022-10-17T05:12:10.389Z,99.99
2022-10-17T05:13:08.865Z,99.99
2022-10-17T05:14:08.917Z,99.99
2022-10-17T05:15:08.987Z,99.99
2022-10-17T05:16:09.007Z,99.99
2022-10-17T05:17:09.057Z,99.99
2022-10-17T05:18:09.097Z,99.99
2022-10-17T05:19:09.140Z,99.99
2022-10-17T05:20:09.187Z,99.99
2022-10-17T05:21:09.247Z,99.99
2022-10-17T05:22:09.300Z,99.99
2022-10-17T05:23:09.348Z,99.99
2022-10-17T05:24:09.403Z,99.99
2022-10-17T05:25:09.449Z,99.99
2022-10-17T05:26:09.486Z,99.99
2022-10-17T05:27:09.549Z,99.99
2022-10-17T05:28:09.539Z,99.99
2022-10-17T05:29:09.585Z,99.99
2022-10-17T05:30:09.520Z,99.99
2022-10-17T05:31:09.594Z,99.99
2022-10-17T05:32:09.591Z,99.99
2022-10-17T05:33:09.591Z,99.99
2022-10-17T05:34:11.622Z,99.99
2022-10-17T05:35:09.581Z,99.99
2022-10-17T05:36:09.573Z,99.99
2022-10-17T05:37:09.642Z,99.99
2022-10-17T05:38:09.736Z,99.99
2022-10-17T05:39:09.743Z,99.99
2022-10-17T05:40:09.746Z,99.99
2022-10-17T05:41:09.881Z,99.99
2022-10-17T05:42:09.794Z,99.99
2022-10-17T05:43:09.864Z,99.99
2022-10-17T05:44:09.934Z,99.99
2022-10-17T05:45:09.905Z,99.99
2022-10-17T05:46:09.959Z,99.99
2022-10-17T05:47:09.957Z,99.99
2022-10-17T05:48:10.000Z,99.99
2022-10-17T05:49:14.938Z,99.99
2022-10-17T05:50:10.045Z,99.99
2022-10-17T05:51:10.057Z,99.99
2022-10-17T05:52:10.067Z,99.99
2022-10-17T05:53:10.097Z,99.99
2022-10-17T05:54:10.132Z,99.99
2022-10-17T05:55:10.159Z,99.99
2022-10-17T05:56:10.178Z,99.99
2022-10-17T05:57:10.248Z,99.99
2022-10-17T05:58:17.658Z,99.99
2022-10-17T05:59:10.299Z,99.99
2022-10-17T06:00:10.330Z,99.99
2022-10-17T06:01:12.734Z,99.99
2022-10-17T06:02:10.380Z,99.99
2022-10-17T06:03:11.165Z,99.99
2022-10-17T06:04:10.371Z,99.99
2022-10-17T06:05:10.430Z,99.99
2022-10-17T06:06:10.480Z,99.99
2022-10-17T06:07:10.501Z,99.99
2022-10-17T06:08:10.510Z,99.99
2022-10-17T06:09:10.514Z,99.99
2022-10-17T06:10:10.574Z,99.99
2022-10-17T06:11:10.776Z,99.99
2022-10-17T06:12:10.653Z,99.99
2022-10-17T06:13:10.700Z,99.99
2022-10-17T06:14:10.715Z,99.99
2022-10-17T06:15:10.755Z,99.99
2022-10-17T06:16:10.766Z,99.99
2022-10-17T06:17:15.571Z,99.99
2022-10-17T06:18:10.807Z,99.99
2022-10-17T06:19:10.816Z,99.99
2022-10-17T06:20:10.866Z,99.99
2022-10-17T06:21:10.906Z,99.99
2022-10-17T06:22:10.938Z,99.99
2022-10-17T06:23:10.996Z,99.99
2022-10-17T06:24:11.028Z,99.99
2022-10-17T06:25:11.061Z,99.99
2022-10-17T06:26:11.116Z,99.99
2022-10-17T06:27:12.265Z,99.99
2022-10-17T06:28:11.169Z,99.99
2022-10-17T06:29:11.245Z,99.99
2022-10-17T06:30:11.201Z,99.99
2022-10-17T06:31:11.211Z,99.99
2022-10-17T06:32:14.219Z,99.99
2022-10-17T06:33:11.260Z,99.99
2022-10-17T06:34:11.280Z,99.99
2022-10-17T06:35:11.271Z,99.99
2022-10-17T06:36:11.331Z,99.99
2022-10-17T06:37:11.395Z,99.99
2022-10-17T06:38:11.458Z,99.99
2022-10-17T06:39:11.525Z,99.99
2022-10-17T06:40:11.543Z,99.99
2022-10-17T06:41:11.604Z,99.99
2022-10-17T06:42:11.684Z,99.96
2022-10-17T06:43:11.674Z,99.86
2022-10-17T06:44:11.664Z,99.76
2022-10-17T06:45:11.646Z,99.55
2022-10-17T06:46:11.745Z,99.55
2022-10-17T06:47:13.459Z,99.30
2022-10-17T06:48:11.745Z,99.10
2022-10-17T06:49:11.814Z,99.10
2022-10-17T06:50:11.873Z,98.80
2022-10-17T06:51:11.896Z,98.75
2022-10-17T06:52:11.898Z,97.85
2022-10-17T06:53:11.899Z,97.54
2022-10-17T06:54:11.898Z,97.09
2022-10-17T06:55:11.899Z,96.34
2022-10-17T06:56:11.921Z,95.63
2022-10-17T06:57:11.928Z,94.78
2022-10-17T06:58:11.939Z,94.57
2022-10-17T06:59:11.950Z,93.82
2022-10-17T07:00:11.965Z,93.32
2022-10-17T07:01:11.975Z,93.21
2022-10-17T07:02:11.980Z,93.87
2022-10-17T07:03:11.990Z,93.87
2022-10-17T07:04:12.034Z,93.62
2022-10-17T07:05:12.053Z,93.21
2022-10-17T07:06:12.082Z,92.77
2022-10-17T07:07:12.083Z,91.76
2022-10-17T07:08:12.093Z,91.96
2022-10-17T07:09:12.103Z,92.57
2022-10-17T07:10:12.114Z,91.96
2022-10-17T07:11:12.113Z,92.21
2022-10-17T07:12:12.138Z,92.91
2022-10-17T07:13:12.144Z,93.21
2022-10-17T07:14:12.190Z,93.01
2022-10-17T07:15:12.198Z,92.91
2022-10-17T07:16:12.220Z,93.26
2022-10-17T07:17:12.217Z,93.46
2022-10-17T07:18:12.246Z,93.87
2022-10-17T07:19:12.227Z,93.87
2022-10-17T07:20:12.267Z,94.07
2022-10-17T07:21:12.256Z,94.17
2022-10-17T07:22:12.268Z,94.42
2022-10-17T07:23:12.348Z,94.92
2022-10-17T07:24:12.379Z,94.92
2022-10-17T07:25:12.360Z,94.92
2022-10-17T07:26:12.391Z,94.67
2022-10-17T07:27:12.380Z,94.67
2022-10-17T07:28:12.421Z,94.12
2022-10-17T07:29:12.414Z,93.66
2022-10-17T07:30:12.451Z,93.87
2022-10-17T07:31:12.501Z,93.96
2022-10-17T07:32:12.512Z,93.66
2022-10-17T07:33:12.522Z,93.72
2022-10-17T07:34:12.533Z,93.52
2022-10-17T07:35:12.533Z,92.97
2022-10-17T07:36:12.554Z,92.66
2022-10-17T07:37:12.586Z,92.06
2022-10-17T07:38:12.605Z,92.16
2022-10-17T07:39:12.623Z,92.16
2022-10-17T07:40:12.655Z,92.16
2022-10-17T07:41:14.461Z,91.71
2022-10-17T07:42:12.727Z,91.71
2022-10-17T07:43:12.727Z,91.41
2022-10-17T07:44:12.738Z,92.06
2022-10-17T07:45:12.737Z,91.66
2022-10-17T07:46:12.727Z,91.51
2022-10-17T07:47:12.798Z,91.61
2022-10-17T07:48:12.808Z,91.06
2022-10-17T07:49:12.844Z,90.22
2022-10-17T07:50:12.840Z,89.81
2022-10-17T07:51:12.861Z,89.41
2022-10-17T07:52:12.859Z,89.51
2022-10-17T07:53:12.871Z,89.26
2022-10-17T07:54:12.899Z,88.42
2022-10-17T07:55:12.931Z,88.26
2022-10-17T07:56:12.956Z,88.46
2022-10-17T07:57:12.952Z,88.72
2022-10-17T07:58:12.971Z,87.82
2022-10-17T07:59:12.975Z,88.16
2022-10-17T08:00:12.993Z,88.36
2022-10-17T08:01:15.122Z,88.22
2022-10-17T08:02:13.052Z,88.02
2022-10-17T08:03:13.115Z,87.41
2022-10-17T08:04:13.128Z,88.22
2022-10-17T08:05:13.121Z,87.67
2022-10-17T08:06:13.133Z,86.93
2022-10-17T08:07:21.719Z,86.52
2022-10-17T08:08:13.174Z,86.36
2022-10-17T08:09:13.158Z,87.17
2022-10-17T08:10:13.242Z,87.31
2022-10-17T08:11:13.169Z,87.62
2022-10-17T08:12:13.198Z,87.47
2022-10-17T08:13:13.227Z,86.83
2022-10-17T08:14:13.277Z,86.38
2022-10-17T08:15:13.239Z,86.12
2022-10-17T08:16:13.252Z,85.98
2022-10-17T08:17:13.368Z,86.08
2022-10-17T08:18:13.331Z,86.08
2022-10-17T08:19:13.440Z,85.52
2022-10-17T08:20:13.332Z,86.77
2022-10-17T08:21:13.399Z,87.11
2022-10-17T08:22:13.405Z,87.51
2022-10-17T08:23:13.402Z,87.71
2022-10-17T08:24:13.435Z,88.12
2022-10-17T08:25:13.476Z,88.32
2022-10-17T08:26:13.556Z,88.52
2022-10-17T08:27:13.617Z,87.92
2022-10-17T08:28:13.591Z,87.92
2022-10-17T08:29:13.693Z,87.62
2022-10-17T08:30:13.638Z,88.32
2022-10-17T08:31:13.666Z,88.02
2022-10-17T08:32:13.685Z,88.22
2022-10-17T08:33:13.707Z,88.07
2022-10-17T08:34:13.708Z,87.47
2022-10-17T08:35:13.887Z,87.57
2022-10-17T08:36:13.828Z,87.37
2022-10-17T08:37:13.825Z,87.57
2022-10-17T08:38:14.167Z,87.17
2022-10-17T08:39:13.859Z,87.17
2022-10-17T08:40:13.869Z,87.47
2022-10-17T08:41:13.900Z,87.07
2022-10-17T08:42:13.901Z,86.87
2022-10-17T08:43:13.997Z,87.17
2022-10-17T08:44:13.923Z,86.97
2022-10-17T08:45:13.944Z,86.77
2022-10-17T08:47:14.002Z,86.93
2022-10-17T08:48:14.061Z,86.32
2022-10-17T08:49:14.103Z,86.63
2022-10-17T08:50:14.143Z,86.12
2022-10-17T08:51:14.152Z,85.58
2022-10-17T08:52:14.153Z,85.53
2022-10-17T08:53:14.235Z,83.69
2022-10-17T08:54:14.194Z,82.70
2022-10-17T08:55:14.325Z,81.23
2022-10-17T08:56:19.476Z,79.80
2022-10-17T08:57:14.257Z,77.53
2022-10-17T08:58:14.268Z,76.70
2022-10-17T08:59:14.321Z,77.36
2022-10-17T09:00:14.367Z,76.56
2022-10-17T09:01:14.514Z,76.46
2022-10-17T09:02:14.472Z,77.64
2022-10-17T09:03:14.615Z,77.91
2022-10-17T09:04:14.574Z,77.26
2022-10-17T09:05:14.622Z,76.53
2022-10-17T09:06:14.680Z,75.43
2022-10-17T09:07:14.681Z,75.89
2022-10-17T09:08:14.718Z,74.99
2022-10-17T09:09:14.712Z,76.06
2022-10-17T09:10:14.793Z,77.84
2022-10-17T09:11:14.822Z,78.54
2022-10-17T09:12:14.836Z,78.98
2022-10-17T09:13:14.862Z,80.26
2022-10-17T09:14:14.946Z,81.06
2022-10-17T09:15:14.914Z,81.50
2022-10-17T09:16:14.925Z,82.20
2022-10-17T09:17:14.939Z,82.31
2022-10-17T09:18:17.554Z,82.64
2022-10-17T09:19:14.996Z,82.64
2022-10-17T09:20:15.025Z,82.51
2022-10-17T09:21:15.070Z,82.00
2022-10-17T09:22:15.129Z,82.31
2022-10-17T09:23:15.149Z,82.37
2022-10-17T09:24:16.270Z,81.80
2022-10-17T09:25:15.168Z,81.96
2022-10-17T09:26:15.223Z,81.32
2022-10-17T09:27:15.221Z,80.38
2022-10-17T09:28:15.250Z,79.78
2022-10-17T09:29:15.292Z,79.48
2022-10-17T09:30:27.039Z,79.71
2022-10-17T09:31:15.384Z,77.93
2022-10-17T09:32:15.344Z,77.19
2022-10-17T09:33:28.116Z,74.76
2022-10-17T09:34:15.353Z,74.76
2022-10-17T09:35:15.397Z,74.82
2022-10-17T09:36:15.427Z,74.52
2022-10-17T09:37:15.467Z,73.22
2022-10-17T09:38:15.475Z,74.85
2022-10-17T09:39:15.487Z,74.99
2022-10-17T09:40:15.487Z,75.29
2022-10-17T09:41:39.202Z,75.26
2022-10-17T09:42:15.557Z,74.32
2022-10-17T09:43:15.558Z,73.28
2022-10-17T09:44:15.581Z,73.69
2022-10-17T09:45:15.583Z,72.92
2022-10-17T09:46:15.599Z,71.72
2022-10-17T09:47:15.619Z,71.62
2022-10-17T09:48:15.629Z,72.55
2022-10-17T09:49:17.245Z,73.35
2022-10-17T09:50:15.814Z,73.39
2022-10-17T09:51:25.804Z,73.39
2022-10-17T09:52:15.821Z,74.02
2022-10-17T09:53:15.755Z,73.58
2022-10-17T09:54:15.747Z,73.25
2022-10-17T09:55:15.743Z,72.81
2022-10-17T09:56:16.466Z,71.55
2022-10-17T09:57:15.784Z,70.95
2022-10-17T09:58:15.816Z,70.12
2022-10-17T09:59:15.826Z,72.02
2022-10-17T10:00:15.837Z,72.19
2022-10-17T10:01:19.650Z,70.92
2022-10-17T10:02:15.838Z,70.09
2022-10-17T10:03:15.892Z,70.72
2022-10-17T10:04:15.870Z,70.52
2022-10-17T10:05:15.944Z,71.39
2022-10-17T10:06:15.909Z,72.75
2022-10-17T10:07:15.969Z,74.35
2022-10-17T10:08:16.065Z,74.02
2022-10-17T10:09:16.906Z,73.98
2022-10-17T10:10:16.079Z,72.65
2022-10-17T10:11:16.101Z,71.95
2022-10-17T10:12:16.170Z,71.51
2022-10-17T10:13:16.222Z,70.59
2022-10-17T10:14:16.213Z,70.06
2022-10-17T10:15:16.244Z,70.49
2022-10-17T10:16:16.235Z,72.52
2022-10-17T10:17:16.244Z,72.81
2022-10-17T10:18:16.342Z,71.19
2022-10-17T10:19:16.285Z,70.45
2022-10-17T10:20:16.304Z,71.19
2022-10-17T10:21:16.306Z,71.98
2022-10-17T10:22:16.321Z,71.65
2022-10-17T10:23:16.337Z,70.15
2022-10-17T10:24:16.378Z,70.72
2022-10-17T10:25:16.377Z,70.98
2022-10-17T10:26:20.146Z,70.19
2022-10-17T10:27:16.381Z,69.29
2022-10-17T10:28:16.382Z,70.19
2022-10-17T10:29:16.440Z,69.29
2022-10-17T10:30:16.459Z,69.20
2022-10-17T10:31:16.462Z,68.37
2022-10-17T10:32:16.481Z,67.30
2022-10-17T10:33:16.492Z,68.10
2022-10-17T10:34:16.534Z,67.83
2022-10-17T10:35:16.548Z,67.63
2022-10-17T10:36:16.558Z,67.90
2022-10-17T10:37:17.190Z,67.30
2022-10-17T10:38:16.598Z,66.78
2022-10-17T10:39:16.575Z,66.05
2022-10-17T10:40:16.594Z,65.78
2022-10-17T10:41:16.606Z,65.39
2022-10-17T10:42:16.677Z,66.55
2022-10-17T10:43:16.660Z,66.91
2022-10-17T10:44:16.695Z,67.54
2022-10-17T10:45:29.454Z,67.90
2022-10-17T10:46:16.748Z,68.30
2022-10-17T10:47:16.749Z,67.70
2022-10-17T10:48:16.769Z,68.10
2022-10-17T10:49:16.801Z,67.90
2022-10-17T10:50:16.877Z,69.23
2022-10-17T10:51:16.841Z,69.06
2022-10-17T10:52:16.902Z,69.06
2022-10-17T10:53:16.951Z,69.69
2022-10-17T10:54:17.012Z,70.06
2022-10-17T10:55:17.075Z,70.16
2022-10-17T10:56:17.026Z,70.29
2022-10-17T10:57:17.073Z,70.99
2022-10-17T10:58:17.144Z,70.99
2022-10-17T10:59:17.185Z,70.99
2022-10-17T11:00:17.258Z,70.19
2022-10-17T11:01:17.308Z,70.89
2022-10-17T11:02:17.246Z,70.49
2022-10-17T11:03:17.306Z,70.69
2022-10-17T11:04:17.347Z,70.69
2022-10-17T11:05:17.357Z,70.16
2022-10-17T11:06:17.396Z,70.45
2022-10-17T11:07:17.428Z,70.62
2022-10-17T11:08:17.439Z,69.92
2022-10-17T11:09:17.419Z,70.29
2022-10-17T11:10:17.449Z,70.59
2022-10-17T11:11:17.490Z,68.83
2022-10-17T11:12:17.521Z,69.43
2022-10-17T11:13:17.501Z,69.02
2022-10-17T11:14:17.529Z,69.53
2022-10-17T11:15:17.552Z,69.73
2022-10-17T11:16:17.552Z,70.32
2022-10-17T11:17:17.593Z,70.26
2022-10-17T11:18:17.642Z,70.39
2022-10-17T11:19:17.693Z,70.79
2022-10-17T11:20:17.706Z,70.69
2022-10-17T11:21:17.695Z,71.25
2022-10-17T11:22:17.755Z,70.49
2022-10-17T11:23:17.813Z,71.29
2022-10-17T11:24:17.865Z,70.99
2022-10-17T11:25:17.927Z,71.39
2022-10-17T11:26:17.917Z,71.48
2022-10-17T11:27:17.947Z,71.39
2022-10-17T11:28:18.026Z,72.78
2022-10-17T11:29:18.088Z,71.69
2022-10-17T11:30:18.168Z,73.11
2022-10-17T11:31:18.150Z,72.78
2022-10-17T11:32:18.202Z,72.22
2022-10-17T11:33:18.239Z,72.22
2022-10-17T11:34:18.251Z,72.32
2022-10-17T11:35:18.250Z,72.72
2022-10-17T11:36:18.301Z,71.75
2022-10-17T11:37:18.282Z,72.16
2022-10-17T11:38:18.370Z,73.09
2022-10-17T11:39:18.422Z,73.19
2022-10-17T11:40:21.874Z,73.09
2022-10-17T11:41:18.526Z,73.58
2022-10-17T11:42:18.544Z,73.09
2022-10-17T11:43:18.624Z,73.19
2022-10-17T11:44:18.656Z,73.39
2022-10-17T11:45:18.686Z,73.49
2022-10-17T11:46:18.687Z,73.69
2022-10-17T11:47:18.763Z,73.99
2022-10-17T11:48:18.806Z,74.12
2022-10-17T11:49:20.641Z,74.88
2022-10-17T11:52:37.347Z,73.79
2022-10-17T11:53:18.879Z,74.08
2022-10-17T11:54:18.910Z,74.02
2022-10-17T11:55:18.943Z,73.82
2022-10-17T11:56:19.000Z,74.02
2022-10-17T11:57:19.045Z,74.12
2022-10-17T11:58:19.120Z,73.99
2022-10-17T11:59:19.072Z,73.79
2022-10-17T12:00:19.067Z,74.58
2022-10-17T12:01:19.062Z,73.99
2022-10-17T12:02:19.135Z,73.69
2022-10-17T12:03:19.185Z,73.09
2022-10-17T12:04:19.249Z,72.78
2022-10-17T12:05:19.263Z,73.39
2022-10-17T12:06:19.274Z,73.09
2022-10-17T12:07:19.335Z,73.02
2022-10-17T12:08:19.336Z,73.22
2022-10-17T12:09:19.356Z,73.42
2022-10-17T12:10:19.399Z,73.42
2022-10-17T12:11:19.399Z,73.62
2022-10-17T12:12:19.427Z,73.52
2022-10-17T12:13:19.437Z,73.62
2022-10-17T12:14:19.478Z,74.12
2022-10-17T12:15:19.472Z,74.12
2022-10-17T12:16:19.489Z,74.52
2022-10-17T12:17:19.522Z,74.22
2022-10-17T12:18:19.610Z,74.62
2022-10-17T12:19:19.599Z,74.76
2022-10-17T12:20:19.611Z,74.66
2022-10-17T12:21:19.631Z,74.46
2022-10-17T12:22:19.701Z,75.05
2022-10-17T12:23:19.722Z,75.09
2022-10-17T12:24:19.740Z,75.49
2022-10-17T12:25:19.808Z,75.79
2022-10-17T12:26:19.854Z,75.83
2022-10-17T12:27:19.872Z,75.73
2022-10-17T12:28:19.912Z,75.52
2022-10-17T12:29:19.925Z,75.73
2022-10-17T12:30:19.956Z,75.73
2022-10-17T12:31:20.005Z,75.52
2022-10-17T12:32:20.025Z,75.83
2022-10-17T12:33:20.045Z,75.83
2022-10-17T12:34:20.047Z,75.39
2022-10-17T12:35:20.088Z,74.89
2022-10-17T12:36:20.127Z,74.79
2022-10-17T12:37:20.184Z,75.09
2022-10-17T12:38:20.189Z,74.99
2022-10-17T12:39:20.199Z,75.19
2022-10-17T12:40:20.251Z,75.19
2022-10-17T12:41:21.990Z,75.09
2022-10-17T12:42:20.291Z,75.29
2022-10-17T12:43:20.290Z,75.19
2022-10-17T12:44:20.301Z,75.49
2022-10-17T12:45:20.361Z,74.79
2022-10-17T12:46:20.372Z,74.59
2022-10-17T12:47:20.988Z,75.29
2022-10-17T12:48:20.420Z,75.69
2022-10-17T12:49:20.423Z,75.49
2022-10-17T12:50:20.414Z,75.69
2022-10-17T12:51:37.605Z,75.79
2022-10-17T12:52:20.494Z,75.89
2022-10-17T12:53:20.555Z,76.39
2022-10-17T12:54:20.546Z,76.23
2022-10-17T12:55:20.567Z,76.83
2022-10-17T12:56:20.781Z,76.83
2022-10-17T12:57:20.625Z,76.53
2022-10-17T12:58:20.635Z,76.53
2022-10-17T12:59:20.657Z,76.43